Time;durP1;ratioP1;P1;durP2;ratioP2;P2;SDS_P1;SDS_P2;PMS_P1;PMS_P2;Temp;Humidity;BMP_temperature;BMP_pressure;BME280_temperature;BME280_humidity;BME280_pressure;Samples;Min_cycle;Max_cycle;Signal;HPM_P1;HPM_P2
2023/02/26 00:00:15;;;;;;;11.10;2.83;;;2.30;95.10;;;;;;5072927;28;20037;-70
2023/02/26 00:02:42;;;;;;;8.68;2.80;;;2.30;95.10;;;;;;5072796;28;20150;-70
2023/02/26 00:05:08;;;;;;;6.47;2.08;;;2.30;95.30;;;;;;5074085;28;20468;-70
2023/02/26 00:07:34;;;;;;;3.28;1.35;;;2.30;95.50;;;;;;5074023;28;20056;-70
2023/02/26 00:10:01;;;;;;;3.78;1.13;;;2.30;95.10;;;;;;5074009;28;20036;-70
2023/02/26 00:12:27;;;;;;;12.63;1.92;;;2.30;94.90;;;;;;5073907;28;20492;-70
2023/02/26 00:14:53;;;;;;;4.85;1.98;;;2.40;94.90;;;;;;5072567;28;20041;-70
2023/02/26 00:17:31;;;;;;;6.63;1.60;;;2.40;94.20;;;;;;5073990;28;20058;-70
2023/02/26 00:19:57;;;;;;;6.35;1.63;;;2.50;93.80;;;;;;5074006;28;20040;-70
2023/02/26 00:22:23;;;;;;;9.82;2.47;;;2.40;94.00;;;;;;5073688;28;20041;-70
2023/02/26 00:24:49;;;;;;;7.82;2.55;;;2.40;93.70;;;;;;5072324;28;20052;-70
2023/02/26 00:27:14;;;;;;;10.98;2.83;;;2.50;93.80;;;;;;5073842;28;20040;-70
2023/02/26 00:29:40;;;;;;;8.55;2.92;;;2.40;93.70;;;;;;5072735;28;20515;-71
2023/02/26 00:32:06;;;;;;;8.55;2.00;;;2.30;93.80;;;;;;5073751;28;20043;-71
2023/02/26 00:34:33;;;;;;;7.72;2.88;;;2.40;93.40;;;;;;5073410;28;20403;-70
2023/02/26 00:37:16;;;;;;;6.95;2.35;;;2.40;92.70;;;;;;5073447;28;20076;-71
2023/02/26 00:39:44;;;;;;;10.35;2.75;;;2.40;92.40;;;;;;5073788;28;20076;-70
2023/02/26 00:42:11;;;;;;;7.25;3.10;;;2.40;92.10;;;;;;5073670;28;20036;-70
2023/02/26 00:44:37;;;;;;;9.02;2.30;;;2.40;92.40;;;;;;5073306;28;20547;-70
2023/02/26 00:47:30;;;;;;;10.95;2.28;;;2.30;92.50;;;;;;5073148;28;20115;-70
2023/02/26 00:49:55;;;;;;;11.53;3.70;;;2.30;91.80;;;;;;5073649;28;20036;-70
2023/02/26 00:53:00;;;;;;;9.70;2.33;;;2.30;92.20;;;;;;5073335;28;20702;-70
2023/02/26 00:55:26;;;;;;;8.52;2.35;;;2.30;91.90;;;;;;5070499;28;20047;-70
2023/02/26 00:57:51;;;;;;;9.45;2.55;;;2.20;92.20;;;;;;5073066;28;20037;-70
2023/02/26 01:00:17;;;;;;;7.53;2.63;;;2.30;92.30;;;;;;5073335;28;20066;-70
2023/02/26 01:02:43;;;;;;;8.07;2.00;;;2.20;92.30;;;;;;5073226;28;20404;-70
2023/02/26 01:05:10;;;;;;;7.05;2.15;;;2.20;92.30;;;;;;5072867;28;20047;-70
2023/02/26 01:07:53;;;;;;;6.35;2.35;;;2.20;92.40;;;;;;5072898;28;20040;-70
2023/02/26 01:10:19;;;;;;;12.20;2.70;;;2.20;92.40;;;;;;5072901;28;20541;-70
2023/02/26 01:12:45;;;;;;;7.85;2.30;;;2.10;92.50;;;;;;5072970;28;20040;-70
2023/02/26 01:15:12;;;;;;;6.90;2.28;;;2.10;92.50;;;;;;5072884;28;20029;-70
2023/02/26 01:17:48;;;;;;;6.13;2.38;;;2.10;92.40;;;;;;5071497;28;20131;-70
2023/02/26 01:20:18;;;;;;;9.80;2.85;;;2.10;92.60;;;;;;5072812;28;20036;-70
2023/02/26 01:22:48;;;;;;;11.07;3.92;;;2.10;92.60;;;;;;5072499;28;20507;-70
2023/02/26 01:25:22;;;;;;;11.18;3.72;;;2.00;92.80;;;;;;5072297;28;20068;-70
2023/02/26 01:27:47;;;;;;;12.02;3.58;;;2.00;92.80;;;;;;5072634;28;20040;-70
2023/02/26 01:30:13;;;;;;;8.50;2.92;;;2.00;93.50;;;;;;5072404;28;20040;-70
2023/02/26 01:32:57;;;;;;;9.68;2.78;;;1.90;93.30;;;;;;5072403;28;20116;-70
2023/02/26 01:35:37;;;;;;;9.85;3.33;;;1.90;93.20;;;;;;5072283;28;20404;-70
2023/02/26 01:38:30;;;;;;;7.30;1.75;;;1.90;93.40;;;;;;5072471;28;20041;-71
2023/02/26 01:41:14;;;;;;;5.55;1.80;;;1.80;93.20;;;;;;5061970;28;20044;-70
2023/02/26 01:44:10;;;;;;;4.32;1.23;;;1.80;93.10;;;;;;5071778;28;20048;-70
2023/02/26 01:47:04;;;;;;;6.03;1.00;;;1.80;93.30;;;;;;5071966;28;20041;-70
2023/02/26 01:49:31;;;;;;;2.15;0.98;;;1.70;93.00;;;;;;5072192;28;20040;-70
2023/02/26 01:51:58;;;;;;;4.85;0.75;;;1.70;93.40;;;;;;5072077;28;20036;-70
2023/02/26 01:54:32;;;;;;;5.20;0.90;;;1.70;93.30;;;;;;5072060;28;20079;-70
2023/02/26 01:57:10;;;;;;;3.38;1.52;;;1.70;93.30;;;;;;5071042;28;20439;-70
2023/02/26 01:59:48;;;;;;;6.00;2.55;;;1.70;93.40;;;;;;5072139;28;20045;-70
2023/02/26 02:02:19;;;;;;;9.98;3.05;;;1.60;93.40;;;;;;5071875;28;20072;-70
2023/02/26 02:04:46;;;;;;;7.68;2.22;;;1.60;93.40;;;;;;5071709;28;20141;-70
2023/02/26 02:07:11;;;;;;;10.63;2.15;;;1.60;93.30;;;;;;5071984;28;20424;-70
2023/02/26 02:09:37;;;;;;;8.20;1.88;;;1.70;93.20;;;;;;5071995;28;20043;-70
2023/02/26 02:12:24;;;;;;;9.43;2.05;;;1.70;93.20;;;;;;5071885;28;20036;-70
2023/02/26 02:15:01;;;;;;;5.35;1.92;;;1.60;93.20;;;;;;5071705;28;20040;-70
2023/02/26 02:17:39;;;;;;;7.60;1.63;;;1.70;93.40;;;;;;5071955;28;20121;-70
2023/02/26 02:20:27;;;;;;;3.38;1.35;;;1.60;93.50;;;;;;5071905;28;20040;-70
2023/02/26 02:23:18;;;;;;;2.50;0.80;;;1.60;93.10;;;;;;5071509;28;20564;-70
2023/02/26 02:26:32;;;;;;;3.47;1.23;;;1.60;93.30;;;;;;5071822;28;20072;-70
2023/02/26 02:29:29;;;;;;;6.88;0.90;;;1.50;93.50;;;;;;5071714;28;20602;-70
2023/02/26 02:31:59;;;;;;;5.40;2.13;;;1.50;93.60;;;;;;5071807;28;20047;-70
2023/02/26 02:34:38;;;;;;;5.28;1.35;;;1.50;93.70;;;;;;5071287;28;20040;-71
2023/02/26 02:37:28;;;;;;;4.50;1.27;;;1.60;93.60;;;;;;5070849;28;20044;-70
2023/02/26 02:40:03;;;;;;;3.22;1.23;;;1.50;93.60;;;;;;5071429;28;20076;-70
2023/02/26 02:42:41;;;;;;;8.13;1.55;;;1.50;93.80;;;;;;5071548;28;20111;-70
2023/02/26 02:45:28;;;;;;;2.92;1.17;;;1.50;93.70;;;;;;5071341;28;20040;-70
2023/02/26 02:48:12;;;;;;;1.70;0.90;;;1.60;93.80;;;;;;5069936;28;20044;-71
2023/02/26 02:50:44;;;;;;;4.60;0.95;;;1.50;94.00;;;;;;5071385;28;20051;-71
2023/02/26 02:53:19;;;;;;;5.25;0.93;;;1.50;94.20;;;;;;5069856;28;20070;-70
2023/02/26 02:56:00;;;;;;;7.07;0.90;;;1.50;94.20;;;;;;5071418;28;20531;-70
2023/02/26 02:58:31;;;;;;;4.75;0.77;;;1.40;94.50;;;;;;5071350;28;20066;-70
2023/02/26 03:01:02;;;;;;;5.30;0.98;;;1.40;94.70;;;;;;5070101;28;20090;-71
2023/02/26 03:03:35;;;;;;;3.03;0.90;;;1.40;95.10;;;;;;5070015;28;20412;-71
2023/02/26 03:06:02;;;;;;;8.02;0.90;;;1.40;95.10;;;;;;5070209;28;20040;-71
2023/02/26 03:08:40;;;;;;;3.90;1.40;;;1.40;95.20;;;;;;5069800;28;20094;-71
2023/02/26 03:11:07;;;;;;;9.73;2.28;;;1.40;95.20;;;;;;5071288;28;20047;-71
2023/02/26 03:13:33;;;;;;;11.85;2.58;;;1.40;95.50;;;;;;5071107;28;20107;-71
2023/02/26 03:16:20;;;;;;;6.05;2.40;;;1.40;95.70;;;;;;5071319;28;20062;-71
2023/02/26 03:19:12;;;;;;;10.15;3.30;;;1.40;95.80;;;;;;5071127;28;20067;-70
2023/02/26 03:21:55;;;;;;;11.90;3.83;;;1.40;96.00;;;;;;5060514;28;20097;-70
2023/02/26 03:24:34;;;;;;;12.23;4.00;;;1.30;96.10;;;;;;5070901;28;20403;-70
2023/02/26 03:27:13;;;;;;;11.75;3.40;;;1.30;96.30;;;;;;5071020;28;20502;-70
2023/02/26 03:29:45;;;;;;;18.88;5.20;;;1.40;96.70;;;;;;5071055;28;20056;-70
2023/02/26 03:32:24;;;;;;;15.30;4.47;;;1.40;96.90;;;;;;5071195;28;20041;-70
2023/02/26 03:34:58;;;;;;;17.08;4.70;;;1.30;96.80;;;;;;5070926;28;20308;-70
2023/02/26 03:37:40;;;;;;;17.25;4.53;;;1.40;97.00;;;;;;5070858;28;20523;-70
2023/02/26 03:40:09;;;;;;;14.55;4.22;;;1.30;97.10;;;;;;5070934;28;20099;-70
2023/02/26 03:42:54;;;;;;;20.10;5.15;;;1.30;97.30;;;;;;5070734;28;20075;-70
2023/02/26 03:45:25;;;;;;;14.93;4.38;;;1.30;97.70;;;;;;5071054;28;20041;-70
2023/02/26 03:47:54;;;;;;;17.13;4.10;;;1.30;97.60;;;;;;5070767;28;20080;-70
2023/02/26 03:50:35;;;;;;;13.30;3.60;;;1.30;97.80;;;;;;5074517;28;20039;-70
2023/02/26 03:53:06;;;;;;;13.35;3.08;;;1.30;97.90;;;;;;5074040;28;20044;-70
2023/02/26 03:55:43;;;;;;;8.88;3.10;;;1.30;98.10;;;;;;5073136;28;20040;-71
2023/02/26 03:58:09;;;;;;;14.77;3.05;;;1.20;98.30;;;;;;5074364;28;20037;-70
2023/02/26 04:00:37;;;;;;;14.18;2.97;;;1.30;98.20;;;;;;5074243;28;20093;-70
2023/02/26 04:03:38;;;;;;;9.65;2.30;;;1.30;98.40;;;;;;5073919;28;20032;-70
2023/02/26 04:06:05;;;;;;;9.05;3.10;;;1.30;98.50;;;;;;5074167;28;20052;-70
2023/02/26 04:08:31;;;;;;;5.20;1.50;;;1.30;98.50;;;;;;5073872;28;20553;-70
2023/02/26 04:11:03;;;;;;;6.35;1.95;;;1.20;98.60;;;;;;5074021;28;20492;-70
2023/02/26 04:13:28;;;;;;;7.53;1.05;;;1.10;98.80;;;;;;5073819;28;20097;-70
2023/02/26 04:15:54;;;;;;;4.35;1.00;;;1.10;98.90;;;;;;5073833;28;20865;-70
2023/02/26 04:18:20;;;;;;;4.68;0.90;;;1.10;99.10;;;;;;5072590;28;20040;-70
2023/02/26 04:20:45;;;;;;;6.43;0.85;;;1.00;99.30;;;;;;5074027;28;20495;-70
2023/02/26 04:23:11;;;;;;;7.00;2.00;;;1.00;99.50;;;;;;5073550;28;20067;-70
2023/02/26 04:25:36;;;;;;;3.85;0.90;;;1.00;99.60;;;;;;5073813;28;20543;-70
2023/02/26 04:28:03;;;;;;;5.60;0.80;;;0.90;99.90;;;;;;5072202;28;20395;-70
2023/02/26 04:30:28;;;;;;;5.43;1.05;;;0.90;99.90;;;;;;5073597;28;20048;-70
2023/02/26 04:32:54;;;;;;;3.97;1.17;;;0.90;99.90;;;;;;5073473;28;20032;-71
2023/02/26 04:35:20;;;;;;;3.63;0.80;;;0.90;99.90;;;;;;5073722;28;20044;-70
2023/02/26 04:37:45;;;;;;;1.55;1.00;;;0.90;99.90;;;;;;5073621;28;20040;-70
2023/02/26 04:40:11;;;;;;;1.95;0.90;;;0.90;99.90;;;;;;5073617;28;20123;-70
2023/02/26 04:42:37;;;;;;;3.53;0.90;;;0.90;99.90;;;;;;5073362;28;20047;-70
2023/02/26 04:45:02;;;;;;;4.90;1.05;;;1.00;99.90;;;;;;5073178;28;20411;-70
2023/02/26 04:47:28;;;;;;;5.00;1.10;;;1.00;99.90;;;;;;5073039;28;20070;-71
2023/02/26 04:49:53;;;;;;;8.10;2.33;;;1.10;99.90;;;;;;5073374;28;20028;-70
2023/02/26 04:52:19;;;;;;;3.67;1.15;;;1.00;99.90;;;;;;5073264;28;20043;-70
2023/02/26 04:54:45;;;;;;;2.53;1.00;;;1.00;99.90;;;;;;5073089;28;20139;-70
2023/02/26 04:57:10;;;;;;;6.88;1.25;;;0.90;99.90;;;;;;5073110;28;20114;-70
2023/02/26 04:59:37;;;;;;;7.85;1.30;;;0.90;99.90;;;;;;5072550;28;20037;-70
2023/02/26 05:02:03;;;;;;;3.70;1.00;;;0.90;99.90;;;;;;5073020;28;20118;-70
2023/02/26 05:04:29;;;;;;;4.13;1.10;;;0.90;99.90;;;;;;5072986;28;20476;-70
2023/02/26 05:06:54;;;;;;;3.55;0.60;;;0.90;99.90;;;;;;5073008;28;20040;-70
2023/02/26 05:09:20;;;;;;;2.60;0.47;;;0.80;99.90;;;;;;5073043;28;20492;-70
2023/02/26 05:11:47;;;;;;;3.97;1.00;;;0.80;99.90;;;;;;5071650;28;20188;-70
2023/02/26 05:14:13;;;;;;;4.57;1.10;;;0.80;99.90;;;;;;5072532;28;20037;-70
2023/02/26 05:16:39;;;;;;;4.95;1.40;;;0.80;99.90;;;;;;5072792;28;20033;-70
2023/02/26 05:19:04;;;;;;;5.82;0.88;;;0.80;99.90;;;;;;5071547;28;20097;-70
2023/02/26 05:21:30;;;;;;;5.93;0.95;;;0.70;99.90;;;;;;5072863;28;20485;-70
2023/02/26 05:23:56;;;;;;;4.47;1.13;;;0.70;99.90;;;;;;5071376;28;20036;-70
2023/02/26 05:26:21;;;;;;;5.43;2.28;;;0.70;99.90;;;;;;5072492;28;20123;-70
2023/02/26 05:28:48;;;;;;;4.30;1.42;;;0.70;99.90;;;;;;5071140;28;20075;-70
2023/02/26 05:31:14;;;;;;;10.82;3.03;;;0.80;99.90;;;;;;5072645;28;20047;-71
2023/02/26 05:33:39;;;;;;;8.20;3.10;;;0.80;99.90;;;;;;5069982;28;20024;-70
2023/02/26 05:36:06;;;;;;;12.35;3.95;;;0.80;99.90;;;;;;5064109;28;20040;-70
2023/02/26 05:38:32;;;;;;;11.65;4.20;;;0.90;99.90;;;;;;5067899;28;20048;-70
2023/02/26 05:40:58;;;;;;;15.43;5.95;;;0.90;99.90;;;;;;5068594;28;20094;-71
2023/02/26 05:43:24;;;;;;;11.80;4.32;;;0.80;99.90;;;;;;5070701;28;20537;-70
2023/02/26 05:45:50;;;;;;;17.65;4.38;;;0.80;99.90;;;;;;5072369;28;20068;-70
2023/02/26 05:48:15;;;;;;;12.48;4.63;;;0.80;99.90;;;;;;5069597;28;20416;-70
2023/02/26 05:50:41;;;;;;;13.35;3.80;;;0.80;99.90;;;;;;5065052;28;20036;-70
2023/02/26 05:53:07;;;;;;;11.40;3.95;;;0.80;99.90;;;;;;5070781;28;20507;-70
2023/02/26 05:55:33;;;;;;;16.92;4.82;;;0.90;99.90;;;;;;5071982;28;20060;-70
2023/02/26 05:57:58;;;;;;;13.15;5.45;;;0.80;99.90;;;;;;5071882;28;20083;-70
2023/02/26 06:00:24;;;;;;;15.10;4.22;;;0.90;99.90;;;;;;5070886;28;20116;-70
2023/02/26 06:02:50;;;;;;;11.48;3.50;;;0.90;99.90;;;;;;5064988;28;20029;-70
2023/02/26 06:05:15;;;;;;;15.10;4.85;;;0.90;99.90;;;;;;5069103;28;20491;-70
2023/02/26 06:07:41;;;;;;;16.60;5.93;;;0.90;99.90;;;;;;5071788;28;20127;-70
2023/02/26 06:10:07;;;;;;;15.02;4.15;;;0.90;99.90;;;;;;5071871;28;20164;-70
2023/02/26 06:12:33;;;;;;;10.23;2.92;;;0.90;99.90;;;;;;5070719;28;20041;-70
2023/02/26 06:14:59;;;;;;;11.23;2.40;;;0.80;99.90;;;;;;5071684;28;20116;-70
2023/02/26 06:17:24;;;;;;;9.07;1.83;;;0.80;99.90;;;;;;5071761;28;20121;-70
2023/02/26 06:19:50;;;;;;;8.10;2.30;;;0.80;99.90;;;;;;5071683;28;20125;-70
2023/02/26 06:22:16;;;;;;;5.28;1.20;;;0.80;99.90;;;;;;5071711;28;20086;-70
2023/02/26 06:24:42;;;;;;;9.30;2.15;;;0.80;99.90;;;;;;5071386;28;20574;-70
2023/02/26 06:27:07;;;;;;;8.02;2.05;;;0.80;99.90;;;;;;5070121;28;20090;-70
2023/02/26 06:29:33;;;;;;;11.32;3.47;;;0.80;99.90;;;;;;5071512;28;20396;-70
2023/02/26 06:31:59;;;;;;;9.07;2.80;;;0.80;99.90;;;;;;5071755;28;20098;-70
2023/02/26 06:34:24;;;;;;;14.18;2.15;;;0.70;99.90;;;;;;5071504;28;20523;-70
2023/02/26 06:36:50;;;;;;;8.48;2.85;;;0.70;99.90;;;;;;5071607;28;20037;-70
2023/02/26 06:39:15;;;;;;;12.43;3.65;;;0.80;99.90;;;;;;5063064;28;20047;-70
2023/02/26 06:41:41;;;;;;;14.65;3.47;;;0.80;99.90;;;;;;5071401;28;20072;-70
2023/02/26 06:44:06;;;;;;;20.08;6.18;;;0.80;99.90;;;;;;5071439;28;20037;-70
2023/02/26 06:46:32;;;;;;;12.60;4.22;;;0.90;99.90;;;;;;5071347;28;20039;-70
2023/02/26 06:48:59;;;;;;;18.77;5.43;;;0.90;99.90;;;;;;5071518;28;20603;-70
2023/02/26 06:51:24;;;;;;;19.13;5.22;;;0.90;99.90;;;;;;5071428;28;20116;-70
2023/02/26 06:53:50;;;;;;;18.27;5.70;;;1.00;99.90;;;;;;5071138;28;20115;-70
2023/02/26 06:56:15;;;;;;;13.02;5.55;;;1.00;99.90;;;;;;5071317;28;20115;-70
2023/02/26 06:58:41;;;;;;;18.02;5.65;;;1.00;99.90;;;;;;5065385;28;20075;-70
2023/02/26 07:01:06;;;;;;;21.77;5.25;;;1.00;99.90;;;;;;5068649;28;20041;-70
2023/02/26 07:03:32;;;;;;;13.35;4.63;;;1.10;99.90;;;;;;5071083;28;20096;-70
2023/02/26 07:05:58;;;;;;;14.48;3.95;;;1.20;99.90;;;;;;5071181;28;20408;-70
2023/02/26 07:08:23;;;;;;;6.32;1.80;;;1.20;99.90;;;;;;5071226;28;20117;-70
2023/02/26 07:10:49;;;;;;;5.45;1.67;;;1.30;99.90;;;;;;5071163;28;20462;-70
2023/02/26 07:13:16;;;;;;;2.33;0.93;;;1.40;99.80;;;;;;5071055;28;20436;-70
2023/02/26 07:15:41;;;;;;;4.40;1.08;;;1.60;99.40;;;;;;5071262;28;20052;-70
2023/02/26 07:18:07;;;;;;;4.20;1.10;;;1.70;99.20;;;;;;5071104;28;20495;-70
2023/02/26 07:20:32;;;;;;;5.43;1.48;;;1.90;99.20;;;;;;5070983;28;20511;-70
2023/02/26 07:22:58;;;;;;;7.80;2.60;;;2.00;98.80;;;;;;5070999;28;20086;-70
2023/02/26 07:25:24;;;;;;;7.63;3.60;;;2.20;98.60;;;;;;5074757;28;20161;-71
2023/02/26 07:27:49;;;;;;;12.13;4.05;;;2.20;98.50;;;;;;5074574;28;20111;-70
2023/02/26 07:30:15;;;;;;;7.50;3.30;;;2.30;98.50;;;;;;5074968;28;20086;-70
2023/02/26 07:32:41;;;;;;;6.15;1.80;;;2.30;98.70;;;;;;5073626;28;20052;-70
2023/02/26 07:35:07;;;;;;;5.80;1.20;;;2.40;98.70;;;;;;5074608;28;20040;-70
2023/02/26 07:37:32;;;;;;;3.28;1.05;;;2.50;98.60;;;;;;5074560;28;20051;-69
2023/02/26 07:39:58;;;;;;;2.95;1.00;;;2.70;98.50;;;;;;5074537;28;20123;-70
2023/02/26 07:42:24;;;;;;;6.80;0.93;;;2.80;98.30;;;;;;5074583;28;20048;-68
2023/02/26 07:44:49;;;;;;;3.03;0.80;;;3.10;98.30;;;;;;5074534;28;20420;-69
2023/02/26 07:47:15;;;;;;;3.90;0.80;;;3.30;97.70;;;;;;5074356;28;20177;-69
2023/02/26 07:49:40;;;;;;;3.83;0.77;;;3.50;97.30;;;;;;5074629;28;20041;-69
2023/02/26 07:52:06;;;;;;;4.13;1.17;;;3.70;97.00;;;;;;5074334;28;20123;-69
2023/02/26 07:54:33;;;;;;;6.85;1.23;;;3.80;96.60;;;;;;5074131;28;20107;-69
2023/02/26 07:56:59;;;;;;;4.97;1.13;;;3.80;96.60;;;;;;5074509;28;20047;-69
2023/02/26 07:59:25;;;;;;;4.68;1.20;;;4.00;96.10;;;;;;5074487;28;20036;-69
2023/02/26 08:01:50;;;;;;;4.70;1.42;;;4.10;95.80;;;;;;5074176;28;20410;-69
2023/02/26 08:04:16;;;;;;;5.72;1.50;;;4.20;95.60;;;;;;5074037;28;20044;-69
2023/02/26 08:06:41;;;;;;;5.50;1.63;;;4.30;95.00;;;;;;5073980;28;20044;-69
2023/02/26 08:09:07;;;;;;;7.85;2.03;;;4.30;94.30;;;;;;5073725;28;20608;-69
2023/02/26 08:11:35;;;;;;;12.40;3.28;;;4.40;94.50;;;;;;5074068;28;20550;-70
2023/02/26 08:14:01;;;;;;;10.32;3.70;;;4.50;94.70;;;;;;5073608;28;20036;-69
2023/02/26 08:16:27;;;;;;;9.55;3.38;;;4.70;94.30;;;;;;5073604;28;20638;-69
2023/02/26 08:18:52;;;;;;;10.55;3.05;;;4.60;94.10;;;;;;5074147;28;20043;-69
2023/02/26 08:21:18;;;;;;;8.65;2.47;;;4.40;94.40;;;;;;5073914;28;20044;-69
2023/02/26 08:23:43;;;;;;;11.15;2.67;;;4.40;94.40;;;;;;5073440;28;20098;-69
2023/02/26 08:26:12;;;;;;;5.25;1.52;;;4.60;94.30;;;;;;5073906;28;20076;-69
2023/02/26 08:28:38;;;;;;;13.80;2.50;;;4.70;94.10;;;;;;5073697;28;20516;-70
2023/02/26 08:31:04;;;;;;;7.70;2.00;;;4.80;93.90;;;;;;5072792;28;20083;-70
2023/02/26 08:33:30;;;;;;;9.65;2.17;;;5.00;93.70;;;;;;5073463;28;20032;-70
2023/02/26 08:35:57;;;;;;;7.88;2.00;;;5.10;93.40;;;;;;5071825;28;20043;-69
2023/02/26 08:38:24;;;;;;;8.25;1.60;;;5.30;93.00;;;;;;5070360;28;20032;-69
2023/02/26 08:40:51;;;;;;;3.85;1.17;;;5.30;91.90;;;;;;5073192;28;20041;-70
2023/02/26 08:43:19;;;;;;;5.13;0.82;;;5.20;91.20;;;;;;5071462;28;20059;-70
2023/02/26 08:45:45;;;;;;;1.90;0.80;;;5.30;91.00;;;;;;5072964;28;20024;-69
2023/02/26 08:48:12;;;;;;;4.22;0.50;;;5.30;90.40;;;;;;5072455;28;20052;-69
2023/02/26 08:50:39;;;;;;;1.88;0.68;;;5.30;90.00;;;;;;5072982;28;20068;-68
2023/02/26 08:53:04;;;;;;;1.38;0.60;;;5.30;89.20;;;;;;5071601;28;20141;-69
2023/02/26 08:55:30;;;;;;;3.97;1.40;;;5.20;89.20;;;;;;5073191;28;20099;-70
2023/02/26 08:57:55;;;;;;;7.15;1.17;;;5.30;89.90;;;;;;5070225;28;20488;-70
2023/02/26 09:00:21;;;;;;;4.65;1.20;;;5.20;89.10;;;;;;5072662;28;20077;-69
2023/02/26 09:02:47;;;;;;;2.90;0.80;;;5.30;88.70;;;;;;5072757;28;20047;-69
2023/02/26 09:05:16;;;;;;;1.40;0.60;;;5.30;88.40;;;;;;5072537;28;20037;-70
2023/02/26 09:07:42;;;;;;;2.88;0.90;;;5.30;87.90;;;;;;5072671;28;20048;-70
2023/02/26 09:10:09;;;;;;;2.75;0.60;;;5.30;88.00;;;;;;5072870;28;20250;-70
2023/02/26 09:12:37;;;;;;;6.03;1.42;;;5.20;88.00;;;;;;5071317;28;20507;-70
2023/02/26 09:15:08;;;;;;;0.90;0.43;;;5.20;88.20;;;;;;5072358;28;20036;-70
2023/02/26 09:17:34;;;;;;;1.75;0.45;;;5.20;87.70;;;;;;5072575;28;20072;-70
2023/02/26 09:20:00;;;;;;;4.15;0.68;;;5.20;86.80;;;;;;5072388;28;20040;-70
2023/02/26 09:22:25;;;;;;;2.30;0.60;;;5.10;86.20;;;;;;5072301;28;20040;-70
2023/02/26 09:24:51;;;;;;;1.55;0.57;;;5.20;86.70;;;;;;5072313;28;20040;-70
2023/02/26 09:27:17;;;;;;;1.58;0.32;;;5.10;86.70;;;;;;5072304;28;20049;-70
2023/02/26 09:29:42;;;;;;;1.30;0.40;;;5.10;86.70;;;;;;5072500;28;20036;-71
2023/02/26 09:32:08;;;;;;;3.50;0.82;;;5.10;86.10;;;;;;5072081;28;20501;-70
2023/02/26 09:34:35;;;;;;;2.17;0.60;;;5.20;86.60;;;;;;5071925;28;20037;-70
2023/02/26 09:37:02;;;;;;;1.80;0.80;;;5.20;86.50;;;;;;5072382;28;20072;-69
2023/02/26 09:39:28;;;;;;;4.18;1.05;;;5.20;86.20;;;;;;5072390;28;20040;-70
2023/02/26 09:41:57;;;;;;;2.38;0.68;;;5.20;85.50;;;;;;5072103;28;20099;-70
2023/02/26 09:44:26;;;;;;;2.72;0.60;;;5.20;85.60;;;;;;5072090;28;20044;-72
2023/02/26 09:47:07;;;;;;;2.47;0.55;;;5.20;86.10;;;;;;5071524;28;20040;-71
2023/02/26 09:49:48;;;;;;;1.52;0.65;;;5.20;85.40;;;;;;5072352;28;20037;-70
2023/02/26 09:52:40;;;;;;;0.93;0.43;;;5.20;85.80;;;;;;5071985;28;20119;-70
2023/02/26 09:55:14;;;;;;;3.88;0.50;;;5.30;86.30;;;;;;5071790;28;20036;-70
2023/02/26 09:57:44;;;;;;;2.05;0.80;;;5.30;86.00;;;;;;5071661;28;20580;-70
2023/02/26 10:00:41;;;;;;;2.10;0.85;;;5.30;86.50;;;;;;5072039;28;20097;-69
2023/02/26 10:03:35;;;;;;;4.60;0.80;;;5.40;86.70;;;;;;5059805;28;20054;-70
2023/02/26 10:06:28;;;;;;;4.53;0.90;;;5.40;87.30;;;;;;5071801;28;20079;-70
2023/02/26 10:09:21;;;;;;;2.90;0.60;;;5.40;87.20;;;;;;5071800;28;20098;-69
2023/02/26 10:11:56;;;;;;;3.58;0.70;;;5.40;85.80;;;;;;5060390;28;20163;-70
2023/02/26 10:14:47;;;;;;;3.72;0.60;;;5.40;86.50;;;;;;5071248;28;20501;-69
2023/02/26 10:17:34;;;;;;;6.05;1.70;;;5.30;86.50;;;;;;5071737;28;20044;-70
2023/02/26 10:20:14;;;;;;;3.67;1.50;;;5.40;87.40;;;;;;5057812;28;20044;-69
2023/02/26 10:22:47;;;;;;;3.80;1.30;;;5.40;87.90;;;;;;5071246;28;20717;-70
2023/02/26 10:25:20;;;;;;;3.97;1.05;;;5.30;87.30;;;;;;5071402;28;20407;-69
2023/02/26 10:28:08;;;;;;;2.10;0.60;;;5.40;88.00;;;;;;5071425;28;20088;-70
2023/02/26 10:30:45;;;;;;;4.32;0.90;;;5.30;87.20;;;;;;5071397;28;20488;-70
2023/02/26 10:33:25;;;;;;;5.43;1.33;;;5.30;87.60;;;;;;5071344;28;20032;-70
2023/02/26 10:35:53;;;;;;;5.93;1.42;;;5.30;87.90;;;;;;5071546;28;20090;-70
2023/02/26 10:38:28;;;;;;;2.78;0.47;;;5.30;87.30;;;;;;5071614;28;20109;-70
2023/02/26 10:41:06;;;;;;;4.03;1.55;;;5.20;86.40;;;;;;5071642;28;20043;-70
2023/02/26 10:44:04;;;;;;;3.88;0.80;;;5.20;86.60;;;;;;5062017;28;20079;-70
2023/02/26 10:46:37;;;;;;;4.22;1.10;;;5.20;87.00;;;;;;5016959;28;20057;-70
2023/02/26 10:49:52;;;;;;;4.28;1.48;;;5.10;87.80;;;;;;5069954;28;20462;-69
2023/02/26 10:52:26;;;;;;;5.70;1.10;;;5.20;87.90;;;;;;5069522;28;20047;-69
2023/02/26 10:54:58;;;;;;;5.05;1.48;;;5.20;87.50;;;;;;5068719;28;20045;-70
2023/02/26 10:57:28;;;;;;;4.07;0.95;;;5.10;87.80;;;;;;5071077;28;20045;-69
2023/02/26 10:59:54;;;;;;;3.42;0.70;;;5.20;87.80;;;;;;5071504;28;20039;-69
2023/02/26 11:02:33;;;;;;;3.60;0.73;;;5.30;87.90;;;;;;5074764;28;20036;-70
2023/02/26 11:04:59;;;;;;;2.97;0.52;;;5.40;86.60;;;;;;5075148;28;20106;-69
2023/02/26 11:07:28;;;;;;;2.67;0.70;;;5.50;85.70;;;;;;5074966;28;20068;-69
2023/02/26 11:09:54;;;;;;;3.08;0.95;;;5.30;85.90;;;;;;5075035;28;20040;-69
2023/02/26 11:12:22;;;;;;;6.50;1.67;;;5.30;86.30;;;;;;5074892;28;20388;-69
2023/02/26 11:14:48;;;;;;;4.07;1.50;;;5.40;87.20;;;;;;5074782;28;20555;-69
2023/02/26 11:17:26;;;;;;;4.45;1.30;;;5.30;87.40;;;;;;5075072;28;20036;-69
2023/02/26 11:20:04;;;;;;;2.35;1.17;;;5.30;87.60;;;;;;5074942;28;20074;-69
2023/02/26 11:22:34;;;;;;;3.75;0.90;;;5.20;86.60;;;;;;5074821;28;20403;-69
2023/02/26 11:25:01;;;;;;;1.13;0.68;;;5.10;86.90;;;;;;5074558;28;20032;-69
2023/02/26 11:27:34;;;;;;;2.70;0.73;;;5.20;87.30;;;;;;5074740;28;20406;-69
2023/02/26 11:30:14;;;;;;;3.75;0.60;;;5.30;86.70;;;;;;5074952;28;20036;-69
2023/02/26 11:32:40;;;;;;;1.63;0.43;;;5.40;86.80;;;;;;5074518;28;20036;-69
2023/02/26 11:35:07;;;;;;;4.22;1.10;;;5.50;86.80;;;;;;5072781;28;20116;-69
2023/02/26 11:37:37;;;;;;;3.90;0.70;;;5.60;87.70;;;;;;5074276;28;20115;-69
2023/02/26 11:40:12;;;;;;;2.53;0.70;;;5.50;86.80;;;;;;5071716;28;20040;-69
2023/02/26 11:42:48;;;;;;;3.83;2.05;;;5.60;87.50;;;;;;5074252;28;20381;-69
2023/02/26 11:45:17;;;;;;;1.80;0.70;;;5.70;87.10;;;;;;5074072;28;20037;-69
2023/02/26 11:47:43;;;;;;;3.08;0.95;;;5.90;87.00;;;;;;5067341;28;20082;-69
2023/02/26 11:50:17;;;;;;;2.67;0.52;;;6.00;87.20;;;;;;5074263;28;20119;-69
2023/02/26 11:52:45;;;;;;;4.78;0.70;;;6.00;87.60;;;;;;5073990;28;20040;-69
2023/02/26 11:55:19;;;;;;;2.90;0.82;;;6.10;87.70;;;;;;5074149;28;20048;-69
2023/02/26 11:57:49;;;;;;;1.08;0.57;;;6.30;87.70;;;;;;5073270;28;20571;-69
2023/02/26 12:00:28;;;;;;;1.20;0.38;;;6.00;86.40;;;;;;5074252;28;20040;-69
2023/02/26 12:03:07;;;;;;;2.72;0.60;;;5.80;86.10;;;;;;5073089;28;20036;-69
2023/02/26 12:05:33;;;;;;;2.08;0.47;;;5.70;85.70;;;;;;5068828;28;20500;-69
2023/02/26 12:07:59;;;;;;;2.05;0.40;;;5.70;86.20;;;;;;5072604;28;20088;-69
2023/02/26 12:10:46;;;;;;;5.47;1.05;;;5.60;86.50;;;;;;5073804;28;20553;-69
2023/02/26 12:13:51;;;;;;;5.53;1.00;;;5.60;85.70;;;;;;5073612;28;20436;-69
2023/02/26 12:16:16;;;;;;;2.17;0.75;;;5.70;85.80;;;;;;5030315;28;20056;-69
2023/02/26 12:18:54;;;;;;;2.28;0.80;;;5.70;85.70;;;;;;5073742;28;20515;-69
2023/02/26 12:21:43;;;;;;;3.90;0.95;;;5.80;85.20;;;;;;5073567;28;20072;-69
2023/02/26 12:24:26;;;;;;;3.05;0.70;;;5.90;84.40;;;;;;5073593;28;20131;-69
2023/02/26 12:27:04;;;;;;;4.65;0.73;;;6.00;84.60;;;;;;5073590;28;20040;-69
2023/02/26 12:29:47;;;;;;;3.03;1.08;;;6.10;84.20;;;;;;5073580;28;20037;-69
2023/02/26 12:32:24;;;;;;;4.47;0.85;;;6.00;84.50;;;;;;5073568;28;20400;-70
2023/02/26 12:35:13;;;;;;;3.70;1.23;;;5.90;85.00;;;;;;5073484;28;20038;-69
2023/02/26 12:37:58;;;;;;;2.83;0.85;;;5.90;85.30;;;;;;5073469;28;20076;-69
2023/02/26 12:40:44;;;;;;;4.72;0.98;;;6.00;83.90;;;;;;5073586;28;20082;-69
2023/02/26 12:43:15;;;;;;;6.13;1.50;;;6.10;86.00;;;;;;5073309;28;20084;-69
2023/02/26 12:45:54;;;;;;;6.05;0.93;;;6.10;86.40;;;;;;5072024;28;20041;-69
2023/02/26 12:48:39;;;;;;;4.07;0.70;;;6.20;87.20;;;;;;5072973;28;20045;-69
2023/02/26 12:51:25;;;;;;;2.67;0.60;;;6.10;87.70;;;;;;5073286;28;20036;-69
2023/02/26 12:53:54;;;;;;;1.23;0.63;;;6.10;88.30;;;;;;5072980;28;20047;-69
2023/02/26 12:56:44;;;;;;;3.10;0.68;;;5.90;88.50;;;;;;5072915;28;20515;-70
2023/02/26 12:59:20;;;;;;;5.25;1.73;;;5.90;88.00;;;;;;5073222;28;20047;-69
2023/02/26 13:02:09;;;;;;;3.50;1.35;;;6.00;88.60;;;;;;5073182;28;20124;-69
2023/02/26 13:04:57;;;;;;;1.70;0.60;;;5.90;89.00;;;;;;5071690;28;20117;-68
2023/02/26 13:07:26;;;;;;;4.55;1.95;;;6.00;89.70;;;;;;5071391;28;20458;-68
2023/02/26 13:09:57;;;;;;;1.83;0.82;;;5.90;89.20;;;;;;5072706;28;20578;-68
2023/02/26 13:12:37;;;;;;;6.07;1.00;;;5.90;89.40;;;;;;5071572;28;20116;-69
2023/02/26 13:15:22;;;;;;;3.38;1.02;;;6.00;89.90;;;;;;5072582;28;20044;-69
2023/02/26 13:17:55;;;;;;;2.50;0.93;;;5.90;89.30;;;;;;5072908;28;20068;-69